sensor_id;sensor_type;location;lat;lon;timestamp;P1;durP1;ratioP1;P2;durP2;ratioP2
67178;SDS011;54112;53.512;49.144;2022-08-04T00:02:11;64.10;;;59.95;;
67178;SDS011;54112;53.512;49.144;2022-08-04T00:07:18;56.20;;;52.00;;
67178;SDS011;54112;53.512;49.144;2022-08-04T00:09:49;66.45;;;60.90;;
67178;SDS011;54112;53.512;49.144;2022-08-04T00:12:17;65.53;;;60.20;;
67178;SDS011;54112;53.512;49.144;2022-08-04T00:14:51;58.47;;;53.83;;
67178;SDS011;54112;53.512;49.144;2022-08-04T00:17:19;68.18;;;62.17;;
67178;SDS011;54112;53.512;49.144;2022-08-04T00:19:51;60.85;;;55.85;;
67178;SDS011;54112;53.512;49.144;2022-08-04T00:22:18;60.92;;;55.85;;
67178;SDS011;54112;53.512;49.144;2022-08-04T00:24:47;65.97;;;60.53;;
67178;SDS011;54112;53.512;49.144;2022-08-04T00:27:12;64.57;;;58.72;;
67178;SDS011;54112;53.512;49.144;2022-08-04T00:29:38;63.65;;;58.38;;
67178;SDS011;54112;53.512;49.144;2022-08-04T00:32:05;63.78;;;59.25;;
67178;SDS011;54112;53.512;49.144;2022-08-04T00:34:31;63.55;;;59.42;;
67178;SDS011;54112;53.512;49.144;2022-08-04T00:36:58;65.53;;;61.10;;
67178;SDS011;54112;53.512;49.144;2022-08-04T00:39:24;63.88;;;59.72;;
67178;SDS011;54112;53.512;49.144;2022-08-04T00:47:03;65.18;;;61.05;;
67178;SDS011;54112;53.512;49.144;2022-08-04T00:54:37;59.30;;;55.28;;
67178;SDS011;54112;53.512;49.144;2022-08-04T00:57:14;66.97;;;62.15;;
67178;SDS011;54112;53.512;49.144;2022-08-04T01:00:05;60.38;;;55.67;;
67178;SDS011;54112;53.512;49.144;2022-08-04T01:02:36;59.65;;;55.65;;
67178;SDS011;54112;53.512;49.144;2022-08-04T01:13:00;67.07;;;60.85;;
67178;SDS011;54112;53.512;49.144;2022-08-04T01:15:43;58.20;;;54.00;;
67178;SDS011;54112;53.512;49.144;2022-08-04T01:18:13;61.42;;;56.13;;
67178;SDS011;54112;53.512;49.144;2022-08-04T01:21:03;71.60;;;64.10;;
67178;SDS011;54112;53.512;49.144;2022-08-04T01:29:07;60.20;;;55.22;;
67178;SDS011;54112;53.512;49.144;2022-08-04T01:31:39;64.10;;;60.08;;
67178;SDS011;54112;53.512;49.144;2022-08-04T01:34:06;58.25;;;54.28;;
67178;SDS011;54112;53.512;49.144;2022-08-04T01:36:35;59.53;;;55.70;;
67178;SDS011;54112;53.512;49.144;2022-08-04T01:39:04;57.15;;;53.50;;
67178;SDS011;54112;53.512;49.144;2022-08-04T01:41:50;68.63;;;63.05;;
67178;SDS011;54112;53.512;49.144;2022-08-04T01:44:16;67.10;;;61.42;;
67178;SDS011;54112;53.512;49.144;2022-08-04T01:46:43;66.65;;;61.50;;
67178;SDS011;54112;53.512;49.144;2022-08-04T01:49:10;61.75;;;56.97;;
67178;SDS011;54112;53.512;49.144;2022-08-04T01:51:38;66.45;;;61.83;;
67178;SDS011;54112;53.512;49.144;2022-08-04T01:54:04;67.07;;;63.05;;
67178;SDS011;54112;53.512;49.144;2022-08-04T01:56:30;58.13;;;54.22;;
67178;SDS011;54112;53.512;49.144;2022-08-04T01:58:56;63.67;;;58.38;;
67178;SDS011;54112;53.512;49.144;2022-08-04T02:01:22;69.57;;;62.65;;
67178;SDS011;54112;53.512;49.144;2022-08-04T02:03:47;66.03;;;60.13;;
67178;SDS011;54112;53.512;49.144;2022-08-04T02:14:40;60.88;;;57.17;;
67178;SDS011;54112;53.512;49.144;2022-08-04T02:17:11;63.92;;;60.38;;
67178;SDS011;54112;53.512;49.144;2022-08-04T02:19:53;60.28;;;55.83;;
67178;SDS011;54112;53.512;49.144;2022-08-04T02:22:21;67.65;;;62.50;;
67178;SDS011;54112;53.512;49.144;2022-08-04T02:24:51;68.35;;;63.42;;
67178;SDS011;54112;53.512;49.144;2022-08-04T02:27:21;63.85;;;58.97;;
67178;SDS011;54112;53.512;49.144;2022-08-04T02:29:58;69.72;;;64.57;;
67178;SDS011;54112;53.512;49.144;2022-08-04T02:32:32;73.57;;;67.93;;
67178;SDS011;54112;53.512;49.144;2022-08-04T02:37:38;72.38;;;66.60;;
67178;SDS011;54112;53.512;49.144;2022-08-04T02:40:09;71.03;;;66.05;;
67178;SDS011;54112;53.512;49.144;2022-08-04T02:42:36;62.33;;;57.47;;
67178;SDS011;54112;53.512;49.144;2022-08-04T02:45:02;60.58;;;56.78;;
67178;SDS011;54112;53.512;49.144;2022-08-04T02:47:30;65.43;;;59.15;;
67178;SDS011;54112;53.512;49.144;2022-08-04T02:49:56;65.88;;;60.67;;
67178;SDS011;54112;53.512;49.144;2022-08-04T02:52:22;61.47;;;56.22;;
67178;SDS011;54112;53.512;49.144;2022-08-04T02:54:54;73.35;;;67.93;;
67178;SDS011;54112;53.512;49.144;2022-08-04T02:57:22;65.50;;;60.10;;
67178;SDS011;54112;53.512;49.144;2022-08-04T03:02:18;75.05;;;69.57;;
67178;SDS011;54112;53.512;49.144;2022-08-04T03:05:02;75.30;;;68.85;;
67178;SDS011;54112;53.512;49.144;2022-08-04T03:07:45;65.40;;;59.38;;
67178;SDS011;54112;53.512;49.144;2022-08-04T03:10:22;62.85;;;57.72;;
67178;SDS011;54112;53.512;49.144;2022-08-04T03:20:22;75.95;;;70.35;;
67178;SDS011;54112;53.512;49.144;2022-08-04T03:25:40;64.82;;;59.35;;
67178;SDS011;54112;53.512;49.144;2022-08-04T03:33:45;65.80;;;61.30;;
67178;SDS011;54112;53.512;49.144;2022-08-04T03:59:59;68.53;;;63.25;;
67178;SDS011;54112;53.512;49.144;2022-08-04T04:20:32;81.93;;;75.88;;
67178;SDS011;54112;53.512;49.144;2022-08-04T04:41:03;72.78;;;67.03;;
67178;SDS011;54112;53.512;49.144;2022-08-04T04:43:38;75.18;;;68.32;;
67178;SDS011;54112;53.512;49.144;2022-08-04T04:49:16;73.10;;;67.30;;
67178;SDS011;54112;53.512;49.144;2022-08-04T04:51:48;70.68;;;65.50;;
67178;SDS011;54112;53.512;49.144;2022-08-04T04:57:06;76.60;;;71.63;;
67178;SDS011;54112;53.512;49.144;2022-08-04T04:59:35;70.63;;;66.18;;
67178;SDS011;54112;53.512;49.144;2022-08-04T05:07:17;78.35;;;73.93;;
67178;SDS011;54112;53.512;49.144;2022-08-04T05:14:49;74.38;;;68.38;;
67178;SDS011;54112;53.512;49.144;2022-08-04T05:22:23;82.45;;;77.53;;
67178;SDS011;54112;53.512;49.144;2022-08-04T05:24:51;87.55;;;82.15;;
67178;SDS011;54112;53.512;49.144;2022-08-04T05:27:21;86.45;;;80.40;;
67178;SDS011;54112;53.512;49.144;2022-08-04T05:29:50;77.93;;;71.75;;
67178;SDS011;54112;53.512;49.144;2022-08-04T05:32:18;81.78;;;76.65;;
67178;SDS011;54112;53.512;49.144;2022-08-04T05:34:47;86.60;;;79.78;;
67178;SDS011;54112;53.512;49.144;2022-08-04T05:37:14;86.55;;;80.53;;
67178;SDS011;54112;53.512;49.144;2022-08-04T05:39:41;87.88;;;82.85;;
67178;SDS011;54112;53.512;49.144;2022-08-04T05:42:08;79.25;;;74.32;;
67178;SDS011;54112;53.512;49.144;2022-08-04T05:44:36;77.18;;;72.40;;
67178;SDS011;54112;53.512;49.144;2022-08-04T05:47:02;77.05;;;71.22;;
67178;SDS011;54112;53.512;49.144;2022-08-04T05:49:29;86.90;;;80.97;;
67178;SDS011;54112;53.512;49.144;2022-08-04T05:52:00;86.97;;;81.38;;
67178;SDS011;54112;53.512;49.144;2022-08-04T05:54:26;89.22;;;83.32;;
67178;SDS011;54112;53.512;49.144;2022-08-04T05:56:53;91.97;;;85.80;;
67178;SDS011;54112;53.512;49.144;2022-08-04T05:59:20;77.45;;;71.78;;
67178;SDS011;54112;53.512;49.144;2022-08-04T06:01:50;88.82;;;82.10;;
67178;SDS011;54112;53.512;49.144;2022-08-04T06:04:16;85.90;;;80.90;;
67178;SDS011;54112;53.512;49.144;2022-08-04T06:06:43;90.18;;;84.40;;
67178;SDS011;54112;53.512;49.144;2022-08-04T06:09:09;85.82;;;80.45;;
67178;SDS011;54112;53.512;49.144;2022-08-04T06:11:37;75.97;;;70.38;;
67178;SDS011;54112;53.512;49.144;2022-08-04T06:14:04;89.68;;;82.78;;
67178;SDS011;54112;53.512;49.144;2022-08-04T06:16:33;84.70;;;78.55;;
67178;SDS011;54112;53.512;49.144;2022-08-04T06:19:01;90.78;;;82.68;;
67178;SDS011;54112;53.512;49.144;2022-08-04T06:21:28;82.80;;;75.82;;
67178;SDS011;54112;53.512;49.144;2022-08-04T06:23:54;87.70;;;81.30;;
67178;SDS011;54112;53.512;49.144;2022-08-04T06:26:20;84.07;;;78.85;;
67178;SDS011;54112;53.512;49.144;2022-08-04T06:28:50;85.05;;;79.63;;
67178;SDS011;54112;53.512;49.144;2022-08-04T06:31:16;79.53;;;73.70;;
67178;SDS011;54112;53.512;49.144;2022-08-04T06:34:02;77.55;;;71.47;;
67178;SDS011;54112;53.512;49.144;2022-08-04T06:36:29;80.07;;;74.10;;
67178;SDS011;54112;53.512;49.144;2022-08-04T06:38:56;86.68;;;80.75;;
67178;SDS011;54112;53.512;49.144;2022-08-04T06:41:23;82.95;;;77.57;;
67178;SDS011;54112;53.512;49.144;2022-08-04T06:43:49;77.55;;;72.85;;
67178;SDS011;54112;53.512;49.144;2022-08-04T06:46:16;77.78;;;71.45;;
67178;SDS011;54112;53.512;49.144;2022-08-04T06:48:41;82.43;;;77.80;;
67178;SDS011;54112;53.512;49.144;2022-08-04T06:51:07;83.60;;;78.32;;
67178;SDS011;54112;53.512;49.144;2022-08-04T06:53:33;82.68;;;76.72;;
67178;SDS011;54112;53.512;49.144;2022-08-04T06:55:59;85.20;;;77.75;;
67178;SDS011;54112;53.512;49.144;2022-08-04T06:58:26;90.10;;;83.78;;
67178;SDS011;54112;53.512;49.144;2022-08-04T07:00:52;75.47;;;70.50;;
67178;SDS011;54112;53.512;49.144;2022-08-04T07:03:19;84.75;;;79.80;;
67178;SDS011;54112;53.512;49.144;2022-08-04T07:05:49;77.75;;;73.07;;
67178;SDS011;54112;53.512;49.144;2022-08-04T07:08:15;81.68;;;77.43;;
67178;SDS011;54112;53.512;49.144;2022-08-04T07:10:41;88.53;;;83.22;;
67178;SDS011;54112;53.512;49.144;2022-08-04T07:13:09;86.85;;;81.65;;
67178;SDS011;54112;53.512;49.144;2022-08-04T07:15:35;91.78;;;84.40;;
67178;SDS011;54112;53.512;49.144;2022-08-04T07:18:01;90.80;;;81.93;;
67178;SDS011;54112;53.512;49.144;2022-08-04T07:20:29;88.13;;;82.00;;
67178;SDS011;54112;53.512;49.144;2022-08-04T07:22:55;80.43;;;75.30;;
67178;SDS011;54112;53.512;49.144;2022-08-04T07:25:21;90.53;;;85.45;;
67178;SDS011;54112;53.512;49.144;2022-08-04T07:27:47;78.78;;;74.25;;
67178;SDS011;54112;53.512;49.144;2022-08-04T07:30:13;81.18;;;76.47;;
67178;SDS011;54112;53.512;49.144;2022-08-04T07:32:39;90.47;;;85.13;;
67178;SDS011;54112;53.512;49.144;2022-08-04T07:35:08;84.57;;;77.93;;
67178;SDS011;54112;53.512;49.144;2022-08-04T07:37:35;97.93;;;90.18;;
67178;SDS011;54112;53.512;49.144;2022-08-04T07:40:00;96.68;;;89.03;;
67178;SDS011;54112;53.512;49.144;2022-08-04T07:42:26;92.47;;;86.22;;
67178;SDS011;54112;53.512;49.144;2022-08-04T07:44:52;89.07;;;83.57;;
67178;SDS011;54112;53.512;49.144;2022-08-04T07:47:19;91.05;;;85.53;;
67178;SDS011;54112;53.512;49.144;2022-08-04T07:49:47;90.28;;;85.00;;
67178;SDS011;54112;53.512;49.144;2022-08-04T07:52:13;80.47;;;76.35;;
67178;SDS011;54112;53.512;49.144;2022-08-04T07:54:39;81.15;;;75.80;;
67178;SDS011;54112;53.512;49.144;2022-08-04T07:57:06;102.45;;;95.05;;
67178;SDS011;54112;53.512;49.144;2022-08-04T07:59:32;90.13;;;84.47;;
67178;SDS011;54112;53.512;49.144;2022-08-04T08:01:58;92.45;;;86.30;;
67178;SDS011;54112;53.512;49.144;2022-08-04T08:04:25;94.32;;;88.38;;
67178;SDS011;54112;53.512;49.144;2022-08-04T08:06:52;91.63;;;86.55;;
67178;SDS011;54112;53.512;49.144;2022-08-04T08:09:18;78.00;;;73.63;;
67178;SDS011;54112;53.512;49.144;2022-08-04T08:11:48;92.60;;;88.25;;
67178;SDS011;54112;53.512;49.144;2022-08-04T08:14:15;80.95;;;76.35;;
67178;SDS011;54112;53.512;49.144;2022-08-04T08:16:41;95.30;;;89.07;;
67178;SDS011;54112;53.512;49.144;2022-08-04T08:19:07;101.22;;;94.15;;
67178;SDS011;54112;53.512;49.144;2022-08-04T08:21:33;79.57;;;74.72;;
67178;SDS011;54112;53.512;49.144;2022-08-04T08:23:58;83.35;;;77.93;;
67178;SDS011;54112;53.512;49.144;2022-08-04T08:26:24;90.78;;;84.00;;
67178;SDS011;54112;53.512;49.144;2022-08-04T08:28:50;92.38;;;86.70;;
67178;SDS011;54112;53.512;49.144;2022-08-04T08:31:16;90.40;;;84.03;;
67178;SDS011;54112;53.512;49.144;2022-08-04T08:33:42;75.80;;;71.68;;
67178;SDS011;54112;53.512;49.144;2022-08-04T08:46:51;91.25;;;85.93;;
67178;SDS011;54112;53.512;49.144;2022-08-04T08:49:38;79.55;;;73.93;;
67178;SDS011;54112;53.512;49.144;2022-08-04T08:52:25;81.90;;;75.68;;
67178;SDS011;54112;53.512;49.144;2022-08-04T08:54:57;86.43;;;80.93;;
67178;SDS011;54112;53.512;49.144;2022-08-04T08:57:32;84.80;;;77.95;;
67178;SDS011;54112;53.512;49.144;2022-08-04T09:00:02;80.25;;;74.70;;
67178;SDS011;54112;53.512;49.144;2022-08-04T09:10:18;85.75;;;80.40;;
67178;SDS011;54112;53.512;49.144;2022-08-04T09:15:40;80.68;;;75.63;;
67178;SDS011;54112;53.512;49.144;2022-08-04T09:18:15;84.05;;;78.30;;
67178;SDS011;54112;53.512;49.144;2022-08-04T09:20:46;86.53;;;81.10;;
67178;SDS011;54112;53.512;49.144;2022-08-04T09:23:25;79.85;;;74.13;;
67178;SDS011;54112;53.512;49.144;2022-08-04T09:29:02;81.40;;;74.40;;
67178;SDS011;54112;53.512;49.144;2022-08-04T09:34:25;79.85;;;75.10;;
67178;SDS011;54112;53.512;49.144;2022-08-04T09:36:54;85.72;;;80.43;;
67178;SDS011;54112;53.512;49.144;2022-08-04T09:39:25;79.97;;;74.60;;
67178;SDS011;54112;53.512;49.144;2022-08-04T09:44:55;83.03;;;77.35;;
67178;SDS011;54112;53.512;49.144;2022-08-04T09:47:29;86.55;;;81.10;;
67178;SDS011;54112;53.512;49.144;2022-08-04T09:58:06;97.38;;;90.20;;
67178;SDS011;54112;53.512;49.144;2022-08-04T10:00:35;91.63;;;85.05;;
67178;SDS011;54112;53.512;49.144;2022-08-04T10:03:04;75.93;;;70.57;;
67178;SDS011;54112;53.512;49.144;2022-08-04T10:10:50;91.72;;;85.63;;
67178;SDS011;54112;53.512;49.144;2022-08-04T10:13:40;73.65;;;69.07;;
67178;SDS011;54112;53.512;49.144;2022-08-04T10:16:19;76.05;;;71.95;;
67178;SDS011;54112;53.512;49.144;2022-08-04T10:18:54;78.38;;;72.00;;
67178;SDS011;54112;53.512;49.144;2022-08-04T10:26:39;76.18;;;70.60;;
67178;SDS011;54112;53.512;49.144;2022-08-04T10:31:33;83.38;;;76.93;;
67178;SDS011;54112;53.512;49.144;2022-08-04T10:34:21;87.75;;;82.88;;
67178;SDS011;54112;53.512;49.144;2022-08-04T10:36:56;77.90;;;71.78;;
67178;SDS011;54112;53.512;49.144;2022-08-04T10:39:39;70.63;;;67.38;;
67178;SDS011;54112;53.512;49.144;2022-08-04T10:42:24;80.95;;;77.75;;
67178;SDS011;54112;53.512;49.144;2022-08-04T10:45:09;79.40;;;75.72;;
67178;SDS011;54112;53.512;49.144;2022-08-04T10:47:41;72.03;;;67.57;;
67178;SDS011;54112;53.512;49.144;2022-08-04T10:50:08;76.95;;;72.63;;
67178;SDS011;54112;53.512;49.144;2022-08-04T10:52:45;81.00;;;76.75;;
67178;SDS011;54112;53.512;49.144;2022-08-04T10:55:20;81.55;;;77.35;;
67178;SDS011;54112;53.512;49.144;2022-08-04T10:57:49;81.32;;;77.63;;
67178;SDS011;54112;53.512;49.144;2022-08-04T11:00:22;81.13;;;76.63;;
67178;SDS011;54112;53.512;49.144;2022-08-04T11:03:00;77.22;;;72.88;;
67178;SDS011;54112;53.512;49.144;2022-08-04T11:13:20;72.22;;;68.13;;
67178;SDS011;54112;53.512;49.144;2022-08-04T11:15:48;71.47;;;67.70;;
67178;SDS011;54112;53.512;49.144;2022-08-04T11:18:24;80.13;;;76.25;;
67178;SDS011;54112;53.512;49.144;2022-08-04T11:20:55;77.40;;;73.25;;
67178;SDS011;54112;53.512;49.144;2022-08-04T11:23:25;80.57;;;76.13;;
67178;SDS011;54112;53.512;49.144;2022-08-04T11:28:45;79.88;;;76.20;;
67178;SDS011;54112;53.512;49.144;2022-08-04T11:31:14;76.28;;;71.55;;
67178;SDS011;54112;53.512;49.144;2022-08-04T11:33:54;79.13;;;74.68;;
67178;SDS011;54112;53.512;49.144;2022-08-04T11:39:05;78.43;;;74.78;;
67178;SDS011;54112;53.512;49.144;2022-08-04T11:41:40;79.55;;;75.70;;
67178;SDS011;54112;53.512;49.144;2022-08-04T11:44:11;74.07;;;69.80;;
67178;SDS011;54112;53.512;49.144;2022-08-04T11:46:42;73.72;;;69.15;;
67178;SDS011;54112;53.512;49.144;2022-08-04T11:51:54;72.82;;;69.10;;
67178;SDS011;54112;53.512;49.144;2022-08-04T11:54:20;83.50;;;79.20;;
67178;SDS011;54112;53.512;49.144;2022-08-04T11:56:46;86.65;;;82.50;;
67178;SDS011;54112;53.512;49.144;2022-08-04T11:59:12;74.80;;;70.90;;
67178;SDS011;54112;53.512;49.144;2022-08-04T12:06:51;71.13;;;67.50;;
67178;SDS011;54112;53.512;49.144;2022-08-04T12:11:59;81.45;;;77.70;;
67178;SDS011;54112;53.512;49.144;2022-08-04T12:14:42;73.78;;;70.35;;
67178;SDS011;54112;53.512;49.144;2022-08-04T12:17:08;70.10;;;66.88;;
67178;SDS011;54112;53.512;49.144;2022-08-04T12:22:05;74.72;;;70.80;;
67178;SDS011;54112;53.512;49.144;2022-08-04T12:24:34;85.25;;;81.75;;
67178;SDS011;54112;53.512;49.144;2022-08-04T12:27:03;73.60;;;69.95;;
67178;SDS011;54112;53.512;49.144;2022-08-04T12:29:33;72.28;;;68.30;;
67178;SDS011;54112;53.512;49.144;2022-08-04T12:32:03;84.90;;;81.28;;
67178;SDS011;54112;53.512;49.144;2022-08-04T12:40:28;84.93;;;80.45;;
67178;SDS011;54112;53.512;49.144;2022-08-04T12:43:02;85.03;;;81.40;;
67178;SDS011;54112;53.512;49.144;2022-08-04T12:45:30;84.28;;;80.35;;
67178;SDS011;54112;53.512;49.144;2022-08-04T12:47:59;87.82;;;83.38;;
67178;SDS011;54112;53.512;49.144;2022-08-04T12:50:26;75.88;;;72.30;;
67178;SDS011;54112;53.512;49.144;2022-08-04T12:52:53;74.45;;;70.72;;
67178;SDS011;54112;53.512;49.144;2022-08-04T12:55:21;72.30;;;68.57;;
67178;SDS011;54112;53.512;49.144;2022-08-04T12:57:48;69.50;;;65.05;;
67178;SDS011;54112;53.512;49.144;2022-08-04T13:00:35;74.28;;;69.85;;
67178;SDS011;54112;53.512;49.144;2022-08-04T13:03:05;80.97;;;77.18;;
67178;SDS011;54112;53.512;49.144;2022-08-04T13:05:33;68.32;;;64.68;;
67178;SDS011;54112;53.512;49.144;2022-08-04T13:08:00;78.85;;;75.53;;
67178;SDS011;54112;53.512;49.144;2022-08-04T13:10:29;71.75;;;68.07;;
67178;SDS011;54112;53.512;49.144;2022-08-04T13:12:57;81.68;;;77.65;;
67178;SDS011;54112;53.512;49.144;2022-08-04T13:15:23;83.22;;;78.45;;
67178;SDS011;54112;53.512;49.144;2022-08-04T13:17:59;84.43;;;79.82;;
67178;SDS011;54112;53.512;49.144;2022-08-04T13:20:27;77.47;;;74.10;;
67178;SDS011;54112;53.512;49.144;2022-08-04T13:22:58;78.97;;;75.32;;
67178;SDS011;54112;53.512;49.144;2022-08-04T13:25:29;73.72;;;70.47;;
67178;SDS011;54112;53.512;49.144;2022-08-04T13:27:56;78.57;;;75.10;;
67178;SDS011;54112;53.512;49.144;2022-08-04T13:30:25;67.07;;;64.00;;
67178;SDS011;54112;53.512;49.144;2022-08-04T13:32:56;75.95;;;72.15;;
67178;SDS011;54112;53.512;49.144;2022-08-04T13:35:22;71.43;;;67.55;;
67178;SDS011;54112;53.512;49.144;2022-08-04T13:37:48;66.82;;;63.10;;
67178;SDS011;54112;53.512;49.144;2022-08-04T13:40:14;80.32;;;76.35;;
67178;SDS011;54112;53.512;49.144;2022-08-04T13:42:40;81.18;;;77.13;;
67178;SDS011;54112;53.512;49.144;2022-08-04T13:45:11;77.80;;;73.93;;
67178;SDS011;54112;53.512;49.144;2022-08-04T13:47:37;75.75;;;70.95;;
67178;SDS011;54112;53.512;49.144;2022-08-04T13:50:20;78.90;;;75.45;;
67178;SDS011;54112;53.512;49.144;2022-08-04T13:52:50;80.68;;;76.88;;
67178;SDS011;54112;53.512;49.144;2022-08-04T13:55:17;71.32;;;67.90;;
67178;SDS011;54112;53.512;49.144;2022-08-04T13:57:44;70.38;;;66.72;;
67178;SDS011;54112;53.512;49.144;2022-08-04T14:00:10;78.15;;;75.05;;
67178;SDS011;54112;53.512;49.144;2022-08-04T14:02:38;68.25;;;65.28;;
67178;SDS011;54112;53.512;49.144;2022-08-04T14:05:07;67.15;;;63.95;;
67178;SDS011;54112;53.512;49.144;2022-08-04T14:07:33;83.18;;;79.20;;
67178;SDS011;54112;53.512;49.144;2022-08-04T14:10:09;83.22;;;79.32;;
67178;SDS011;54112;53.512;49.144;2022-08-04T14:12:35;72.63;;;68.38;;
67178;SDS011;54112;53.512;49.144;2022-08-04T14:15:07;68.77;;;65.50;;
67178;SDS011;54112;53.512;49.144;2022-08-04T14:17:53;78.70;;;74.70;;
67178;SDS011;54112;53.512;49.144;2022-08-04T14:20:19;83.63;;;80.00;;
67178;SDS011;54112;53.512;49.144;2022-08-04T14:22:44;72.10;;;67.75;;
67178;SDS011;54112;53.512;49.144;2022-08-04T14:25:11;80.65;;;77.03;;
67178;SDS011;54112;53.512;49.144;2022-08-04T14:27:42;89.38;;;83.85;;
67178;SDS011;54112;53.512;49.144;2022-08-04T14:30:24;74.85;;;71.22;;
67178;SDS011;54112;53.512;49.144;2022-08-04T14:33:10;67.78;;;64.82;;
67178;SDS011;54112;53.512;49.144;2022-08-04T14:35:37;80.50;;;77.28;;
67178;SDS011;54112;53.512;49.144;2022-08-04T14:38:05;83.25;;;79.28;;
67178;SDS011;54112;53.512;49.144;2022-08-04T14:40:35;81.05;;;77.45;;
67178;SDS011;54112;53.512;49.144;2022-08-04T14:43:03;72.45;;;68.93;;
67178;SDS011;54112;53.512;49.144;2022-08-04T14:45:32;80.70;;;77.05;;
67178;SDS011;54112;53.512;49.144;2022-08-04T14:47:59;84.65;;;80.25;;
67178;SDS011;54112;53.512;49.144;2022-08-04T14:50:32;85.18;;;80.78;;
67178;SDS011;54112;53.512;49.144;2022-08-04T14:53:06;71.72;;;67.97;;
67178;SDS011;54112;53.512;49.144;2022-08-04T14:55:33;71.40;;;68.25;;
67178;SDS011;54112;53.512;49.144;2022-08-04T14:57:59;83.55;;;79.75;;
67178;SDS011;54112;53.512;49.144;2022-08-04T15:00:26;69.18;;;65.57;;
67178;SDS011;54112;53.512;49.144;2022-08-04T15:02:53;84.63;;;81.13;;
67178;SDS011;54112;53.512;49.144;2022-08-04T15:05:20;82.95;;;79.38;;
67178;SDS011;54112;53.512;49.144;2022-08-04T15:07:46;69.18;;;65.97;;
67178;SDS011;54112;53.512;49.144;2022-08-04T15:10:12;79.57;;;75.72;;
67178;SDS011;54112;53.512;49.144;2022-08-04T15:12:39;83.72;;;79.40;;
67178;SDS011;54112;53.512;49.144;2022-08-04T15:15:05;83.32;;;79.53;;
67178;SDS011;54112;53.512;49.144;2022-08-04T15:17:31;68.35;;;64.60;;
67178;SDS011;54112;53.512;49.144;2022-08-04T15:19:56;82.97;;;79.47;;
67178;SDS011;54112;53.512;49.144;2022-08-04T15:22:24;80.60;;;77.13;;
67178;SDS011;54112;53.512;49.144;2022-08-04T15:24:49;70.28;;;66.68;;
67178;SDS011;54112;53.512;49.144;2022-08-04T15:27:15;72.63;;;68.93;;
67178;SDS011;54112;53.512;49.144;2022-08-04T15:29:44;82.13;;;78.35;;
67178;SDS011;54112;53.512;49.144;2022-08-04T15:32:12;71.43;;;68.10;;
67178;SDS011;54112;53.512;49.144;2022-08-04T15:40:17;77.80;;;73.82;;
67178;SDS011;54112;53.512;49.144;2022-08-04T15:45:28;73.85;;;70.63;;
67178;SDS011;54112;53.512;49.144;2022-08-04T15:50:30;81.57;;;77.63;;
67178;SDS011;54112;53.512;49.144;2022-08-04T15:53:02;74.75;;;71.45;;
67178;SDS011;54112;53.512;49.144;2022-08-04T15:55:29;83.68;;;78.80;;
67178;SDS011;54112;53.512;49.144;2022-08-04T15:57:56;70.22;;;66.40;;
67178;SDS011;54112;53.512;49.144;2022-08-04T16:00:24;85.05;;;81.10;;
67178;SDS011;54112;53.512;49.144;2022-08-04T16:02:49;81.32;;;77.13;;
67178;SDS011;54112;53.512;49.144;2022-08-04T16:08:00;76.55;;;73.25;;
67178;SDS011;54112;53.512;49.144;2022-08-04T16:13:05;71.50;;;67.72;;
67178;SDS011;54112;53.512;49.144;2022-08-04T16:20:43;74.10;;;70.10;;
67178;SDS011;54112;53.512;49.144;2022-08-04T16:25:46;91.28;;;84.22;;
67178;SDS011;54112;53.512;49.144;2022-08-04T16:28:35;86.70;;;82.35;;
67178;SDS011;54112;53.512;49.144;2022-08-04T16:31:05;79.32;;;75.80;;
67178;SDS011;54112;53.512;49.144;2022-08-04T16:33:31;88.43;;;81.85;;
67178;SDS011;54112;53.512;49.144;2022-08-04T16:35:58;76.05;;;70.75;;
67178;SDS011;54112;53.512;49.144;2022-08-04T16:38:24;73.75;;;69.93;;
67178;SDS011;54112;53.512;49.144;2022-08-04T16:40:59;75.22;;;71.50;;
67178;SDS011;54112;53.512;49.144;2022-08-04T16:43:26;73.53;;;69.53;;
67178;SDS011;54112;53.512;49.144;2022-08-04T16:45:56;74.55;;;70.22;;
67178;SDS011;54112;53.512;49.144;2022-08-04T16:48:29;69.30;;;64.53;;
67178;SDS011;54112;53.512;49.144;2022-08-04T16:56:20;74.70;;;70.53;;
67178;SDS011;54112;53.512;49.144;2022-08-04T16:58:52;82.85;;;78.72;;
67178;SDS011;54112;53.512;49.144;2022-08-04T17:01:18;77.95;;;73.25;;
67178;SDS011;54112;53.512;49.144;2022-08-04T17:03:51;76.38;;;72.07;;
67178;SDS011;54112;53.512;49.144;2022-08-04T17:06:17;76.40;;;72.65;;
67178;SDS011;54112;53.512;49.144;2022-08-04T17:08:44;67.07;;;63.40;;
67178;SDS011;54112;53.512;49.144;2022-08-04T17:11:10;64.35;;;61.58;;
67178;SDS011;54112;53.512;49.144;2022-08-04T17:13:37;77.20;;;70.13;;
67178;SDS011;54112;53.512;49.144;2022-08-04T17:16:05;77.30;;;71.65;;
67178;SDS011;54112;53.512;49.144;2022-08-04T17:18:33;78.40;;;73.72;;
67178;SDS011;54112;53.512;49.144;2022-08-04T17:21:01;67.57;;;63.45;;
67178;SDS011;54112;53.512;49.144;2022-08-04T17:23:29;78.20;;;73.82;;
67178;SDS011;54112;53.512;49.144;2022-08-04T17:25:56;79.30;;;73.32;;
67178;SDS011;54112;53.512;49.144;2022-08-04T17:28:22;77.15;;;72.78;;
67178;SDS011;54112;53.512;49.144;2022-08-04T17:30:48;77.68;;;73.72;;
67178;SDS011;54112;53.512;49.144;2022-08-04T17:33:15;65.07;;;61.72;;
67178;SDS011;54112;53.512;49.144;2022-08-04T17:35:41;67.32;;;64.03;;
67178;SDS011;54112;53.512;49.144;2022-08-04T17:38:06;80.95;;;75.93;;
67178;SDS011;54112;53.512;49.144;2022-08-04T17:40:32;74.32;;;70.53;;
67178;SDS011;54112;53.512;49.144;2022-08-04T17:43:04;66.68;;;62.42;;
67178;SDS011;54112;53.512;49.144;2022-08-04T17:45:30;68.93;;;63.58;;
67178;SDS011;54112;53.512;49.144;2022-08-04T17:47:56;81.88;;;74.97;;
67178;SDS011;54112;53.512;49.144;2022-08-04T17:50:23;74.45;;;69.53;;
67178;SDS011;54112;53.512;49.144;2022-08-04T17:52:59;74.72;;;69.50;;
67178;SDS011;54112;53.512;49.144;2022-08-04T17:55:47;69.57;;;64.43;;
67178;SDS011;54112;53.512;49.144;2022-08-04T18:00:43;76.25;;;72.65;;
67178;SDS011;54112;53.512;49.144;2022-08-04T18:03:25;66.95;;;63.53;;
67178;SDS011;54112;53.512;49.144;2022-08-04T18:05:51;67.28;;;62.75;;
67178;SDS011;54112;53.512;49.144;2022-08-04T18:08:24;62.08;;;59.05;;
67178;SDS011;54112;53.512;49.144;2022-08-04T18:10:53;72.30;;;69.00;;
67178;SDS011;54112;53.512;49.144;2022-08-04T18:13:20;65.60;;;62.70;;
67178;SDS011;54112;53.512;49.144;2022-08-04T18:15:46;61.45;;;58.35;;
67178;SDS011;54112;53.512;49.144;2022-08-04T18:18:19;61.58;;;58.72;;
67178;SDS011;54112;53.512;49.144;2022-08-04T18:20:45;61.88;;;58.88;;
67178;SDS011;54112;53.512;49.144;2022-08-04T18:23:11;74.50;;;70.43;;
67178;SDS011;54112;53.512;49.144;2022-08-04T18:25:37;69.65;;;66.55;;
67178;SDS011;54112;53.512;49.144;2022-08-04T18:28:04;70.25;;;66.88;;
67178;SDS011;54112;53.512;49.144;2022-08-04T18:30:32;72.55;;;68.60;;
67178;SDS011;54112;53.512;49.144;2022-08-04T18:32:57;70.78;;;66.72;;
67178;SDS011;54112;53.512;49.144;2022-08-04T18:35:23;62.60;;;59.42;;